Observation data for McLean on 12/08/2018      Previous  Date       Current Mesonet Observations  Soil Data  Daily Summary Page  Observations in Plain Language
KMCS 080600Z 04009KT M02/M08 A303 RMK A01 T10151080  RH  061%=      5-min Rain = 0
KMCS 080605Z 04009KT M02/M08 A303 RMK A01 T10151081  RH  061%=      5-min Rain = 0
KMCS 080610Z 04007KT M02/M08 A3031 RMK A01 T10151080  RH  061%=      5-min Rain = 0
KMCS 080615Z 04006KT M01/M08 A3031 RMK A01 T10141080  RH  061%=      5-min Rain = 0
KMCS 080620Z 03005KT M01/M08 A3032 RMK A01 T10141079  RH  061%=      5-min Rain = 0
KMCS 080625Z 02007KT M01/M08 A3032 RMK A01 T10141078  RH  061%=      5-min Rain = 0
KMCS 080630Z 03008KT M01/M08 A3031 RMK A01 T10141077  RH  062%=      5-min Rain = 0
KMCS 080635Z 03007KT M02/M08 A3031 RMK A01 T10151078  RH  062%=      5-min Rain = 0
KMCS 080640Z 03008KT M02/M08 A303 RMK A01 T10151078  RH  062%=      5-min Rain = 0
KMCS 080645Z 02007KT M02/M08 A303 RMK A01 T10151077  RH  062%=      5-min Rain = 0
KMCS 080650Z 02008KT M02/M08 A303 RMK A01 T10151080  RH  061%=      5-min Rain = 0
KMCS 080655Z 02009KT M02/M08 A3029 RMK A01 T10151080  RH  061%=      5-min Rain = 0
KMCS 080700Z 02010KT M02/M08 A3029 RMK A01 T10161077  RH  063%=      5-min Rain = 0
KMCS 080705Z 02007KT M02/M08 A3029 RMK A01 T10161075  RH  064%=      5-min Rain = 0
KMCS 080710Z 02007KT M02/M08 A3029 RMK A01 T10161076  RH  063%=      5-min Rain = 0
KMCS 080715Z 02006KT M02/M08 A3029 RMK A01 T10161081  RH  061%=      5-min Rain = 0
KMCS 080720Z 02006KT M02/M08 A303 RMK A01 T10161079  RH  062%=      5-min Rain = 0
KMCS 080725Z 02009KT M02/M07 A303 RMK A01 T10171072  RH  066%=      5-min Rain = 0
KMCS 080730Z 03007KT M02/M07 A303 RMK A01 T10171072  RH  066%=      5-min Rain = 0
KMCS 080735Z 03007KT M02/M07 A303 RMK A01 T10171069  RH  067%=      5-min Rain = 0
KMCS 080740Z 02007KT M02/M07 A3029 RMK A01 T10171069  RH  067%=      5-min Rain = 0
KMCS 080745Z 02008KT M02/M07 A3029 RMK A01 T10171069  RH  068%=      5-min Rain = 0
KMCS 080750Z 02008KT M02/M07 A3029 RMK A01 T10171068  RH  069%=      5-min Rain = 0
KMCS 080755Z 02008KT M02/M07 A303 RMK A01 T10181065  RH  070%=      5-min Rain = 0
KMCS 080800Z 02008KT M02/M07 A303 RMK A01 T10181065  RH  071%=      5-min Rain = 0
KMCS 080805Z 02005KT M02/M06 A303 RMK A01 T10181064  RH  071%=      5-min Rain = 0
KMCS 080810Z 00006KT M02/M06 A303 RMK A01 T10171063  RH  071%=      5-min Rain = 0
KMCS 080815Z 36007KT M02/M07 A3031 RMK A01 T10171068  RH  068%=      5-min Rain = 0
KMCS 080820Z 36007KT M02/M07 A303 RMK A01 T10171073  RH  065%=      5-min Rain = 0
KMCS 080825Z 36007KT M02/M07 A303 RMK A01 T10171072  RH  066%=      5-min Rain = 0
KMCS 080830Z 00006KT M02/M07 A303 RMK A01 T10171069  RH  068%=      5-min Rain = 0
KMCS 080835Z 01007KT M02/M07 A303 RMK A01 T10181067  RH  069%=      5-min Rain = 0
KMCS 080840Z 01008KT M02/M07 A303 RMK A01 T10181067  RH  069%=      5-min Rain = 0
KMCS 080845Z 01008KT M02/M07 A3029 RMK A01 T10181066  RH  070%=      5-min Rain = 0
KMCS 080850Z 01008KT M02/M07 A3029 RMK A01 T10181066  RH  070%=      5-min Rain = 0
KMCS 080855Z 02008KT M02/M07 A3029 RMK A01 T10181067  RH  069%=      5-min Rain = 0
KMCS 080900Z 01008KT M02/M07 A3029 RMK A01 T10191068  RH  069%=      5-min Rain = 0
KMCS 080905Z 02008KT M02/M07 A3028 RMK A01 T10181067  RH  069%=      5-min Rain = 0
KMCS 080910Z 02008KT M02/M07 A3028 RMK A01 T10181067  RH  069%=      5-min Rain = 0
KMCS 080915Z 02007KT M02/M07 A3028 RMK A01 T10181066  RH  070%=      5-min Rain = 0
KMCS 080920Z 02009KT M02/M07 A3028 RMK A01 T10191066  RH  070%=      5-min Rain = 0
KMCS 080925Z 02009KT M02/M07 A3027 RMK A01 T10191067  RH  070%=      5-min Rain = 0
KMCS 080930Z 02008KT M02/M07 A3027 RMK A01 T10191065  RH  071%=      5-min Rain = 0
KMCS 080935Z 02009KT M02/M06 A3027 RMK A01 T10191063  RH  072%=      5-min Rain = 0
KMCS 080940Z 01008KT M02/M06 A3027 RMK A01 T10201064  RH  071%=      5-min Rain = 0
KMCS 080945Z 00008KT M02/M07 A3027 RMK A01 T10191066  RH  070%=      5-min Rain = 0
KMCS 080950Z 00008KT M02/M07 A3027 RMK A01 T10191067  RH  070%=      5-min Rain = 0
KMCS 080955Z 01007KT M02/M07 A3027 RMK A01 T10191067  RH  070%=      5-min Rain = 0
KMCS 081000Z 01006KT M02/M07 A3027 RMK A01 T10191066  RH  071%=      5-min Rain = 0
KMCS 081005Z 01007KT M02/M07 A3027 RMK A01 T10191066  RH  071%=      5-min Rain = 0
KMCS 081010Z 01007KT M02/M07 A3027 RMK A01 T10191067  RH  070%=      5-min Rain = 0
KMCS 081015Z 00008KT M02/M07 A3026 RMK A01 T10191070  RH  068%=      5-min Rain = 0
KMCS 081020Z 00008KT M02/M07 A3026 RMK A01 T10191069  RH  068%=      5-min Rain = 0
KMCS 081025Z 01010KT M02/M07 A3026 RMK A01 T10201070  RH  068%=      5-min Rain = 0
KMCS 081030Z 01008KT M02/M07 A3026 RMK A01 T10201067  RH  070%=      5-min Rain = 0
KMCS 081035Z 01009KT M02/M07 A3026 RMK A01 T10211067  RH  071%=      5-min Rain = 0
KMCS 081040Z 01008KT M02/M07 A3026 RMK A01 T10211066  RH  071%=      5-min Rain = 0
KMCS 081045Z 00009KT M02/M07 A3026 RMK A01 T10201069  RH  069%=      5-min Rain = 0
KMCS 081050Z 00008KT M02/M07 A3026 RMK A01 T10201070  RH  068%=      5-min Rain = 0
KMCS 081055Z 36008KT M02/M07 A3026 RMK A01 T10191069  RH  069%=      5-min Rain = 0
KMCS 081100Z 01009KT M02/M07 A3026 RMK A01 T10201071  RH  068%=      5-min Rain = 0
KMCS 081105Z 00008KT M02/M07 A3026 RMK A01 T10201070  RH  068%=      5-min Rain = 0
KMCS 081110Z 01007KT M02/M07 A3026 RMK A01 T10201067  RH  071%=      5-min Rain = 0
KMCS 081115Z 36008KT M02/M07 A3026 RMK A01 T10191072  RH  067%=      5-min Rain = 0
KMCS 081120Z 00007KT M02/M08 A3026 RMK A01 T10191076  RH  065%=      5-min Rain = 0
KMCS 081125Z 00009KT M02/M08 A3026 RMK A01 T10201078  RH  064%=      5-min Rain = 0
KMCS 081130Z 01010KT M02/M08 A3026 RMK A01 T10201079  RH  064%=      5-min Rain = 0
KMCS 081135Z 36010KT M02/M08 A3026 RMK A01 T10201084  RH  061%=      5-min Rain = 0
KMCS 081140Z 00010KT M02/M09 A3026 RMK A01 T10191086  RH  060%=      5-min Rain = 0
KMCS 081145Z 00011KT M02/M09 A3026 RMK A01 T10191090  RH  058%=      5-min Rain = 0
KMCS 081150Z 00010KT M02/M09 A3026 RMK A01 T10191091  RH  058%=      5-min Rain = 0
KMCS 081155Z 00011KT M02/M09 A3026 RMK A01 T10191093  RH  057%=      5-min Rain = 0
KMCS 081200Z 00009KT M02/M09 A3026 RMK A01 T10191092  RH  057%=      5-min Rain = 0
KMCS 081205Z 36010KT M02/M09 A3027 RMK A01 T10191092  RH  057%=      5-min Rain = 0
KMCS 081210Z 00010KT M02/M09 A3027 RMK A01 T10191094  RH  056%=      5-min Rain = 0
KMCS 081215Z 36010KT M02/M09 A3027 RMK A01 T10191093  RH  057%=      5-min Rain = 0
KMCS 081220Z 36010KT M02/M09 A3027 RMK A01 T10191092  RH  057%=      5-min Rain = 0
KMCS 081225Z 36011KT M02/M09 A3028 RMK A01 T10191091  RH  057%=      5-min Rain = 0
KMCS 081230Z 35009KT M02/M09 A3028 RMK A01 T10191091  RH  058%=      5-min Rain = 0
KMCS 081235Z 35010KT M02/M09 A3028 RMK A01 T10181091  RH  058%=      5-min Rain = 0
KMCS 081240Z 36011KT M02/M09 A3028 RMK A01 T10191091  RH  058%=      5-min Rain = 0
KMCS 081245Z 35010KT M02/M09 A3028 RMK A01 T10191090  RH  058%=      5-min Rain = 0
KMCS 081250Z 36010KT M02/M09 A3028 RMK A01 T10191090  RH  058%=      5-min Rain = 0
KMCS 081255Z 00008KT M02/M09 A3028 RMK A01 T10191090  RH  058%=      5-min Rain = 0
KMCS 081300Z 00010KT M02/M09 A3028 RMK A01 T10191089  RH  059%=      5-min Rain = 0
KMCS 081305Z 00010KT M02/M09 A3028 RMK A01 T10201090  RH  058%=      5-min Rain = 0
KMCS 081310Z 00009KT M02/M09 A3028 RMK A01 T10201090  RH  059%=      5-min Rain = 0
KMCS 081315Z 00010KT M02/M09 A3028 RMK A01 T10201089  RH  059%=      5-min Rain = 0
KMCS 081320Z 36011KT M02/M09 A3028 RMK A01 T10201089  RH  059%=      5-min Rain = 0
KMCS 081325Z 36011KT M02/M09 A3028 RMK A01 T10201089  RH  059%=      5-min Rain = 0
KMCS 081330Z 00009G14KT M02/M09 A3028 RMK A01 T10201088  RH  060%=      5-min Rain = 0
KMCS 081335Z 01009KT M02/M09 A3028 RMK A01 T10201087  RH  060%=      5-min Rain = 0
KMCS 081340Z 01010KT M02/M09 A3028 RMK A01 T10201087  RH  060%=      5-min Rain = 0
KMCS 081345Z 01008KT M02/M09 A3029 RMK A01 T10211086  RH  061%=      5-min Rain = 0
KMCS 081350Z 01007KT M02/M09 A3029 RMK A01 T10201085  RH  061%=      5-min Rain = 0
KMCS 081355Z 00009KT M02/M09 A3028 RMK A01 T10201085  RH  061%=      5-min Rain = 0
KMCS 081400Z 01008KT M02/M08 A3028 RMK A01 T10201084  RH  062%=      5-min Rain = 0
KMCS 081405Z 00010KT M02/M08 A3028 RMK A01 T10201082  RH  062%=      5-min Rain = 0
KMCS 081410Z 00009KT M02/M08 A3028 RMK A01 T10201082  RH  063%=      5-min Rain = 0
KMCS 081415Z 00010KT M02/M08 A3029 RMK A01 T10211081  RH  063%=      5-min Rain = 0
KMCS 081420Z 00009KT M02/M08 A3029 RMK A01 T10201081  RH  063%=      5-min Rain = 0
KMCS 081425Z 36011KT M02/M08 A3029 RMK A01 T10201081  RH  063%=      5-min Rain = 0
KMCS 081430Z 00011KT M02/M08 A3029 RMK A01 T10201082  RH  063%=      5-min Rain = 0
KMCS 081435Z 00009KT M02/M08 A3029 RMK A01 T10201082  RH  062%=      5-min Rain = 0
KMCS 081440Z 00010KT M02/M08 A3029 RMK A01 T10191083  RH  061%=      5-min Rain = 0
KMCS 081445Z 00010KT M02/M08 A303 RMK A01 T10181083  RH  061%=      5-min Rain = 0
KMCS 081450Z 00009KT M02/M08 A303 RMK A01 T10171083  RH  061%=      5-min Rain = 0
KMCS 081455Z 01010KT M02/M08 A303 RMK A01 T10171084  RH  060%=      5-min Rain = 0
KMCS 081500Z 01010KT M02/M09 A303 RMK A01 T10171085  RH  060%=      5-min Rain = 0
KMCS 081505Z 01009KT M02/M08 A303 RMK A01 T10161084  RH  060%=      5-min Rain = 0
KMCS 081510Z 01009G14KT M02/M08 A303 RMK A01 T10151084  RH  059%=      5-min Rain = 0
KMCS 081515Z 01010KT M02/M09 A303 RMK A01 T10151085  RH  059%=      5-min Rain = 0
KMCS 081520Z 01010KT M02/M09 A303 RMK A01 T10151085  RH  059%=      5-min Rain = 0
KMCS 081525Z 02009KT M02/M09 A3031 RMK A01 T10161087  RH  058%=      5-min Rain = 0
KMCS 081530Z 01009KT M02/M09 A3031 RMK A01 T10151087  RH  058%=      5-min Rain = 0
KMCS 081535Z 02010KT M02/M09 A3031 RMK A01 T10161088  RH  058%=      5-min Rain = 0
KMCS 081540Z 02010G15KT M02/M09 A3031 RMK A01 T10161088  RH  058%=      5-min Rain = 0
KMCS 081545Z 02010KT M02/M09 A3031 RMK A01 T10161089  RH  057%=      5-min Rain = 0
KMCS 081550Z 00010KT M02/M09 A3031 RMK A01 T10151088  RH  057%=      5-min Rain = 0
KMCS 081555Z 01010KT M02/M09 A3031 RMK A01 T10151087  RH  058%=      5-min Rain = 0
KMCS 081600Z 01009KT M02/M09 A3031 RMK A01 T10151087  RH  058%=      5-min Rain = 0
KMCS 081605Z 01009KT M01/M09 A3031 RMK A01 T10141086  RH  058%=      5-min Rain = 0
KMCS 081610Z 01010KT M01/M09 A3031 RMK A01 T10131087  RH  057%=      5-min Rain = 0
KMCS 081615Z 02011KT M01/M09 A3031 RMK A01 T10131087  RH  057%=      5-min Rain = 0
KMCS 081620Z 02009KT M01/M09 A3031 RMK A01 T10131088  RH  057%=      5-min Rain = 0
KMCS 081625Z 02010KT M01/M09 A3031 RMK A01 T10121088  RH  056%=      5-min Rain = 0
KMCS 081630Z 02009KT M01/M09 A3031 RMK A01 T10131087  RH  057%=      5-min Rain = 0
KMCS 081635Z 02009KT M01/M09 A3031 RMK A01 T10111087  RH  056%=      5-min Rain = 0
KMCS 081640Z 01008KT M01/M09 A3031 RMK A01 T10111086  RH  057%=      5-min Rain = 0
KMCS 081645Z 01009KT M01/M09 A3031 RMK A01 T10091085  RH  056%=      5-min Rain = 0
KMCS 081650Z 01009KT M01/M09 A3031 RMK A01 T10101086  RH  056%=      5-min Rain = 0
KMCS 081655Z 01010KT M01/M09 A3031 RMK A01 T10081089  RH  054%=      5-min Rain = 0
KMCS 081700Z 01010KT M01/M09 A3031 RMK A01 T10071090  RH  053%=      5-min Rain = 0
KMCS 081705Z 01010KT M01/M09 A3031 RMK A01 T10061093  RH  052%=      5-min Rain = 0
KMCS 081710Z 02010KT M01/M10 A3031 RMK A01 T10051096  RH  050%=      5-min Rain = 0
KMCS 081715Z 02009KT M00/M09 A303 RMK A01 T10031094  RH  050%=      5-min Rain = 0
KMCS 081720Z 02009KT M00/M09 A303 RMK A01 T10011091  RH  051%=      5-min Rain = 0
KMCS 081725Z 01010KT M00/M09 A3031 RMK A01 T10011090  RH  051%=      5-min Rain = 0
KMCS 081730Z 00010KT M00/M09 A3031 RMK A01 T10011094  RH  050%=      5-min Rain = 0
KMCS 081735Z 36009KT 00/09 A3031 RMK A01 T00-00-91  RH  050%=      5-min Rain = 0
KMCS 081740Z 36009KT 00/M09 A303 RMK A01 T00011088  RH  051%=      5-min Rain = 0
KMCS 081745Z 01008KT 00/M09 A303 RMK A01 T00031090  RH  050%=      5-min Rain = 0
KMCS 081750Z 35009KT 00/M09 A303 RMK A01 T00031090  RH  050%=      5-min Rain = 0
KMCS 081755Z 01008KT 01/M09 A303 RMK A01 T00081087  RH  049%=      5-min Rain = 0
KMCS 081800Z 35008KT 01/M09 A3029 RMK A01 T00101086  RH  049%=      5-min Rain = 0
KMCS 081805Z 36010KT 01/M09 A3029 RMK A01 T00121089  RH  047%=      5-min Rain = 0
KMCS 081810Z 36010KT 01/M10 A3029 RMK A01 T00121097  RH  044%=      5-min Rain = 0
KMCS 081815Z 36009KT 01/M09 A3029 RMK A01 T00121094  RH  045%=      5-min Rain = 0
KMCS 081820Z 34009KT 02/M09 A3029 RMK A01 T00151092  RH  045%=      5-min Rain = 0
KMCS 081825Z 36010KT 02/M10 A3028 RMK A01 T00161095  RH  043%=      5-min Rain = 0
KMCS 081830Z 36009KT 01/M10 A3028 RMK A01 T00141095  RH  044%=      5-min Rain = 0
KMCS 081835Z 01009KT 02/M10 A3027 RMK A01 T00171097  RH  042%=      5-min Rain = 0
KMCS 081840Z 02008KT 02/M10 A3027 RMK A01 T00161097  RH  043%=      5-min Rain = 0
KMCS 081845Z 35009KT 02/M09 A3027 RMK A01 T00221093  RH  042%=      5-min Rain = 0
KMCS 081850Z 36009KT 02/M09 A3026 RMK A01 T00211093  RH  043%=      5-min Rain = 0
KMCS 081855Z 01009KT 02/M09 A3026 RMK A01 T00231092  RH  042%=      5-min Rain = 0
KMCS 081900Z 36008KT 02/M09 A3026 RMK A01 T00211092  RH  043%=      5-min Rain = 0
KMCS 081905Z 35009KT 02/M09 A3026 RMK A01 T00211090  RH  043%=      5-min Rain = 0
KMCS 081910Z 35010KT 03/M09 A3026 RMK A01 T00251086  RH  044%=      5-min Rain = 0
KMCS 081915Z 35009G14KT 03/M09 A3026 RMK A01 T00271086  RH  043%=      5-min Rain = 0
KMCS 081920Z 35009KT 03/M09 A3026 RMK A01 T00281085  RH  043%=      5-min Rain = 0
KMCS 081925Z 35010KT 03/M09 A3026 RMK A01 T00261085  RH  044%=      5-min Rain = 0
KMCS 081930Z 34008G13KT 03/M08 A3026 RMK A01 T00261084  RH  044%=      5-min Rain = 0
KMCS 081935Z 34008KT 03/M08 A3025 RMK A01 T00281083  RH  044%=      5-min Rain = 0
KMCS 081940Z 34009KT 03/M08 A3025 RMK A01 T00281082  RH  044%=      5-min Rain = 0
KMCS 081945Z 34009KT 03/M08 A3025 RMK A01 T00321081  RH  043%=      5-min Rain = 0
KMCS 081950Z 34009KT 04/M08 A3024 RMK A01 T00351080  RH  043%=      5-min Rain = 0
KMCS 081955Z 33009KT 03/M08 A3024 RMK A01 T00341081  RH  042%=      5-min Rain = 0
KMCS 082000Z 35008KT 04/M08 A3024 RMK A01 T00391081  RH  041%=      5-min Rain = 0
KMCS 082005Z 34008KT 04/M08 A3024 RMK A01 T00391080  RH  041%=      5-min Rain = 0
KMCS 082010Z 35009G15KT 04/M08 A3024 RMK A01 T00411079  RH  041%=      5-min Rain = 0
KMCS 082015Z 34010KT 04/M08 A3024 RMK A01 T00391081  RH  041%=      5-min Rain = 0
KMCS 082020Z 35010KT 04/M08 A3023 RMK A01 T00401080  RH  041%=      5-min Rain = 0
KMCS 082025Z 36009KT 04/M08 A3023 RMK A01 T00431077  RH  041%=      5-min Rain = 0
KMCS 082030Z 35009KT 05/M08 A3023 RMK A01 T00451080  RH  040%=      5-min Rain = 0
KMCS 082035Z 35009KT 05/M08 A3023 RMK A01 T00471081  RH  039%=      5-min Rain = 0
KMCS 082040Z 36009G14KT 04/M08 A3023 RMK A01 T00421080  RH  041%=      5-min Rain = 0
KMCS 082045Z 34010KT 04/M08 A3023 RMK A01 T00421077  RH  041%=      5-min Rain = 0
KMCS 082050Z 36008KT 04/M08 A3023 RMK A01 T00371080  RH  042%=      5-min Rain = 0
KMCS 082055Z 00008KT 04/M08 A3023 RMK A01 T00371082  RH  042%=      5-min Rain = 0
KMCS 082100Z 00007KT 04/M08 A3023 RMK A01 T00431079  RH  040%=      5-min Rain = 0
KMCS 082105Z 01007G12KT 04/M08 A3022 RMK A01 T00421083  RH  040%=      5-min Rain = 0
KMCS 082110Z 01006KT 04/M09 A3022 RMK A01 T00431091  RH  037%=      5-min Rain = 0
KMCS 082115Z 02006G11KT 04/M09 A3022 RMK A01 T00441091  RH  036%=      5-min Rain = 0
KMCS 082120Z 00008KT 04/M09 A3022 RMK A01 T00441094  RH  036%=      5-min Rain = 0
KMCS 082125Z 34009KT 04/M09 A3022 RMK A01 T00441091  RH  037%=      5-min Rain = 0
KMCS 082130Z 36009KT 05/M09 A3022 RMK A01 T00451094  RH  036%=      5-min Rain = 0
KMCS 082135Z 35008KT 04/M10 A3022 RMK A01 T00441097  RH  035%=      5-min Rain = 0
KMCS 082140Z 35009KT 04/M10 A3022 RMK A01 T00441099  RH  035%=      5-min Rain = 0
KMCS 082145Z 36010KT 04/M10 A3022 RMK A01 T00431103  RH  033%=      5-min Rain = 0
KMCS 082150Z 36008KT 04/M11 A3022 RMK A01 T00441106  RH  032%=      5-min Rain = 0
KMCS 082155Z 00008KT 04/M11 A3022 RMK A01 T00431110  RH  032%=      5-min Rain = 0
KMCS 082200Z 36007KT 04/M11 A3022 RMK A01 T00431107  RH  033%=      5-min Rain = 0
KMCS 082205Z 02008KT 04/M11 A3022 RMK A01 T00411108  RH  033%=      5-min Rain = 0
KMCS 082210Z 36007KT 04/M11 A3022 RMK A01 T00421106  RH  033%=      5-min Rain = 0
KMCS 082215Z 36007KT 04/M11 A3022 RMK A01 T00411105  RH  033%=      5-min Rain = 0
KMCS 082220Z 01005G10KT 04/M11 A3022 RMK A01 T00411108  RH  033%=      5-min Rain = 0
KMCS 082225Z 00008KT 04/M11 A3022 RMK A01 T00401106  RH  033%=      5-min Rain = 0
KMCS 082230Z 01007KT 04/M11 A3022 RMK A01 T00401106  RH  033%=      5-min Rain = 0
KMCS 082235Z 02007KT 04/M10 A3022 RMK A01 T00401103  RH  034%=      5-min Rain = 0
KMCS 082240Z 01007KT 04/M11 A3022 RMK A01 T00391105  RH  034%=      5-min Rain = 0
KMCS 082245Z 01006KT 04/M11 A3022 RMK A01 T00381108  RH  033%=      5-min Rain = 0
KMCS 082250Z 02006KT 04/M11 A3022 RMK A01 T00381110  RH  033%=      5-min Rain = 0
KMCS 082255Z 01006KT 04/M11 A3023 RMK A01 T00371112  RH  033%=      5-min Rain = 0
KMCS 082300Z 01006KT 04/M11 A3023 RMK A01 T00361114  RH  032%=      5-min Rain = 0
KMCS 082305Z 02005KT 03/M12 A3023 RMK A01 T00341115  RH  032%=      5-min Rain = 0
KMCS 082310Z 02006KT 03/M12 A3023 RMK A01 T00321118  RH  032%=      5-min Rain = 0
KMCS 082315Z 02006KT 03/M12 A3023 RMK A01 T00301120  RH  032%=      5-min Rain = 0
KMCS 082320Z 01005KT 03/M12 A3023 RMK A01 T00281120  RH  033%=      5-min Rain = 0
KMCS 082325Z 02005KT 03/M12 A3023 RMK A01 T00251121  RH  033%=      5-min Rain = 0
KMCS 082330Z 02005KT 02/M12 A3023 RMK A01 T00231122  RH  033%=      5-min Rain = 0
KMCS 082335Z 02005KT 02/M13 A3023 RMK A01 T00201125  RH  033%=      5-min Rain = 0
KMCS 082340Z 01005KT 02/M13 A3023 RMK A01 T00181127  RH  033%=      5-min Rain = 0
KMCS 082345Z 02006KT 02/M13 A3024 RMK A01 T00161129  RH  033%=      5-min Rain = 0
KMCS 082350Z 02006KT 02/M13 A3024 RMK A01 T00161132  RH  032%=      5-min Rain = 0
KMCS 082355Z 02006KT 02/M14 A3023 RMK A01 T00151136  RH  031%=      5-min Rain = 0
KMCS 090000Z 02007KT 01/M14 A3023 RMK A01 T00131139  RH  031%=      5-min Rain = 0
KMCS 090005Z 02007KT 01/M14 A3023 RMK A01 T00131139  RH  031%=      5-min Rain = 0
KMCS 090010Z 02007KT 01/M14 A3024 RMK A01 T00131140  RH  031%=      5-min Rain = 0
KMCS 090015Z 02007KT 01/M14 A3024 RMK A01 T00131142  RH  030%=      5-min Rain = 0
KMCS 090020Z 02007KT 01/M14 A3024 RMK A01 T00121144  RH  030%=      5-min Rain = 0
KMCS 090025Z 03007KT 01/M14 A3024 RMK A01 T00111144  RH  030%=      5-min Rain = 0
KMCS 090030Z 03007KT 01/M14 A3024 RMK A01 T00081143  RH  031%=      5-min Rain = 0
KMCS 090035Z 03007KT 01/M14 A3024 RMK A01 T00071143  RH  031%=      5-min Rain = 0
KMCS 090040Z 03007KT 01/M14 A3024 RMK A01 T00071143  RH  031%=      5-min Rain = 0
KMCS 090045Z 03007KT 01/M14 A3024 RMK A01 T00071143  RH  031%=      5-min Rain = 0
KMCS 090050Z 03007KT 01/M15 A3024 RMK A01 T00071145  RH  031%=      5-min Rain = 0
KMCS 090055Z 03007KT 01/M15 A3025 RMK A01 T00061145  RH  031%=      5-min Rain = 0
KMCS 090100Z 03007KT 01/M15 A3025 RMK A01 T00071148  RH  030%=      5-min Rain = 0
KMCS 090105Z 03007KT 01/M15 A3025 RMK A01 T00061148  RH  030%=      5-min Rain = 0
KMCS 090110Z 03007KT 01/M15 A3025 RMK A01 T00051149  RH  030%=      5-min Rain = 0
KMCS 090115Z 03007KT 00/M15 A3025 RMK A01 T00031150  RH  030%=      5-min Rain = 0
KMCS 090120Z 03007KT 00/M15 A3025 RMK A01 T00041151  RH  030%=      5-min Rain = 0
KMCS 090125Z 02007KT 01/M15 A3026 RMK A01 T00051152  RH  030%=      5-min Rain = 0
KMCS 090130Z 03007KT 01/M15 A3026 RMK A01 T00051152  RH  029%=      5-min Rain = 0
KMCS 090135Z 03007KT 00/M15 A3026 RMK A01 T00041152  RH  030%=      5-min Rain = 0
KMCS 090140Z 03007KT 00/M15 A3026 RMK A01 T00011152  RH  030%=      5-min Rain = 0
KMCS 090145Z 03007KT M00/M15 A3026 RMK A01 T10011152  RH  031%=      5-min Rain = 0
KMCS 090150Z 03006KT M00/M15 A3026 RMK A01 T10021152  RH  031%=      5-min Rain = 0
KMCS 090155Z 03007KT M00/M15 A3026 RMK A01 T10031151  RH  031%=      5-min Rain = 0
KMCS 090200Z 03006KT M00/M15 A3026 RMK A01 T10041151  RH  032%=      5-min Rain = 0
KMCS 090205Z 03006KT M01/M15 A3026 RMK A01 T10051151  RH  032%=      5-min Rain = 0
KMCS 090210Z 03006KT M00/M15 A3026 RMK A01 T10041151  RH  032%=      5-min Rain = 0
KMCS 090215Z 03006KT M00/M15 A3026 RMK A01 T10021151  RH  031%=      5-min Rain = 0
KMCS 090220Z 03006KT M00/M15 A3027 RMK A01 T10011153  RH  031%=      5-min Rain = 0
KMCS 090225Z 03006KT M00/M15 A3027 RMK A01 T10011152  RH  031%=      5-min Rain = 0
KMCS 090230Z 03006KT M00/M15 A3026 RMK A01 T10011151  RH  031%=      5-min Rain = 0
KMCS 090235Z 03006KT M00/M15 A3026 RMK A01 T10021151  RH  031%=      5-min Rain = 0
KMCS 090240Z 03006KT M00/M15 A3026 RMK A01 T10031152  RH  031%=      5-min Rain = 0
KMCS 090245Z 02006KT M00/M15 A3026 RMK A01 T10021152  RH  031%=      5-min Rain = 0
KMCS 090250Z 02006KT M00/M15 A3026 RMK A01 T10031150  RH  032%=      5-min Rain = 0
KMCS 090255Z 02006KT M00/M15 A3026 RMK A01 T10041149  RH  032%=      5-min Rain = 0
KMCS 090300Z 01005KT M01/M15 A3027 RMK A01 T10051149  RH  032%=      5-min Rain = 0
KMCS 090305Z 01005KT M03/M15 A3027 RMK A01 T10331146  RH  041%=      5-min Rain = 0
KMCS 090310Z 01005KT M05/M14 A3026 RMK A01 T10491143  RH  047%=      5-min Rain = 0
KMCS 090315Z 00005KT M04/M14 A3026 RMK A01 T10441143  RH  046%=      5-min Rain = 0
KMCS 090320Z 35006KT M04/M14 A3026 RMK A01 T10391142  RH  044%=      5-min Rain = 0
KMCS 090325Z 34005KT M03/M14 A3026 RMK A01 T10331143  RH  042%=      5-min Rain = 0
KMCS 090330Z 34005KT M03/M14 A3027 RMK A01 T10311143  RH  041%=      5-min Rain = 0
KMCS 090335Z 33005KT M03/M14 A3027 RMK A01 T10321142  RH  042%=      5-min Rain = 0
KMCS 090340Z 32005KT M03/M14 A3027 RMK A01 T10341142  RH  043%=      5-min Rain = 0
KMCS 090345Z 33005KT M04/M14 A3027 RMK A01 T10361141  RH  044%=      5-min Rain = 0
KMCS 090350Z 33005KT M03/M14 A3027 RMK A01 T10341141  RH  043%=      5-min Rain = 0
KMCS 090355Z 34005KT M03/M14 A3027 RMK A01 T10331141  RH  043%=      5-min Rain = 0
KMCS 090400Z 33005KT M03/M14 A3027 RMK A01 T10341139  RH  044%=      5-min Rain = 0
KMCS 090405Z 33005KT M04/M14 A3027 RMK A01 T10351137  RH  045%=      5-min Rain = 0
KMCS 090410Z 33005KT M04/M14 A3027 RMK A01 T10361137  RH  045%=      5-min Rain = 0
KMCS 090415Z 33005KT M04/M14 A3027 RMK A01 T10381136  RH  046%=      5-min Rain = 0
KMCS 090420Z 33006KT M04/M13 A3027 RMK A01 T10391134  RH  047%=      5-min Rain = 0
KMCS 090425Z 34006KT M04/M13 A3027 RMK A01 T10401134  RH  048%=      5-min Rain = 0
KMCS 090430Z 34006KT M04/M13 A3027 RMK A01 T10411134  RH  048%=      5-min Rain = 0
KMCS 090435Z 34006KT M04/M13 A3027 RMK A01 T10421133  RH  048%=      5-min Rain = 0
KMCS 090440Z 34006KT M04/M13 A3027 RMK A01 T10431132  RH  049%=      5-min Rain = 0
KMCS 090445Z 34006KT M04/M13 A3027 RMK A01 T10441132  RH  050%=      5-min Rain = 0
KMCS 090450Z 35007KT M04/M13 A3028 RMK A01 T10421131  RH  049%=      5-min Rain = 0
KMCS 090455Z 34006KT M04/M13 A3028 RMK A01 T10411131  RH  049%=      5-min Rain = 0
KMCS 090500Z 33006KT M04/M13 A3028 RMK A01 T10431130  RH  050%=      5-min Rain = 0
KMCS 090505Z 33006KT M04/M13 A3028 RMK A01 T10441129  RH  051%=      5-min Rain = 0
KMCS 090510Z 34007KT M04/M13 A3028 RMK A01 T10441128  RH  051%=      5-min Rain = 0
KMCS 090515Z 34007KT M04/M13 A3028 RMK A01 T10431127  RH  052%=      5-min Rain = 0
KMCS 090520Z 33007KT M05/M13 A3028 RMK A01 T10451127  RH  052%=      5-min Rain = 0
KMCS 090525Z 33007KT M05/M13 A3028 RMK A01 T10471126  RH  054%=      5-min Rain = 0
KMCS 090530Z 32007KT M05/M13 A3029 RMK A01 T10491126  RH  055%=      5-min Rain = 0
KMCS 090535Z 32007KT M05/M13 A3029 RMK A01 T10521125  RH  056%=      5-min Rain = 0
KMCS 090540Z 32007KT M05/M12 A3029 RMK A01 T10541124  RH  057%=      5-min Rain = 0
KMCS 090545Z 32007KT M06/M12 A3029 RMK A01 T10561124  RH  059%=      5-min Rain = 0
KMCS 090550Z 32007KT M06/M12 A3029 RMK A01 T10571123  RH  060%=      5-min Rain = 0
KMCS 090555Z 31007KT M06/M12 A3029 RMK A01 T10581122  RH  061%=      5-min Rain = 0

Page generated in 0.0092 seconds.